createdAt,value
2022-10-14T00:01:24.161Z,80.86
2022-10-14T00:04:03.307Z,80.88
2022-10-14T00:06:42.271Z,80.79
2022-10-14T00:09:21.257Z,81.40
2022-10-14T00:11:59.399Z,81.18
2022-10-14T00:14:39.167Z,81.82
2022-10-14T00:17:17.424Z,82.07
2022-10-14T00:19:57.269Z,82.30
2022-10-14T00:22:35.612Z,82.00
2022-10-14T00:25:13.616Z,82.49
2022-10-14T00:27:52.568Z,82.76
2022-10-14T00:30:31.744Z,82.95
2022-10-14T00:33:11.455Z,82.81
2022-10-14T00:35:56.727Z,83.04
2022-10-14T00:38:39.134Z,82.85
2022-10-14T00:41:23.746Z,82.94
2022-10-14T00:44:24.891Z,83.33
2022-10-14T00:47:07.070Z,83.80
2022-10-14T00:49:45.853Z,83.33
2022-10-14T00:52:25.338Z,82.91
2022-10-14T00:55:15.928Z,83.33
2022-10-14T00:57:54.786Z,83.63
2022-10-14T01:00:32.809Z,82.94
2022-10-14T01:03:21.631Z,84.10
2022-10-14T01:06:07.557Z,84.37
2022-10-14T01:09:05.393Z,84.22
2022-10-14T01:11:46.816Z,84.30
2022-10-14T01:14:41.514Z,84.31
2022-10-14T01:17:27.031Z,83.93
2022-10-14T01:20:42.368Z,84.43
2022-10-14T01:23:42.310Z,83.88
2022-10-14T01:26:54.008Z,84.26
2022-10-14T01:30:10.511Z,84.82
2022-10-14T01:32:58.763Z,84.56
2022-10-14T01:36:02.909Z,84.23
2022-10-14T01:38:58.724Z,84.34
2022-10-14T01:41:45.828Z,84.22
2022-10-14T01:44:28.283Z,84.36
2022-10-14T01:47:09.085Z,84.70
2022-10-14T01:49:53.979Z,84.90
2022-10-14T01:52:39.821Z,84.43
2022-10-14T01:55:23.578Z,84.65
2022-10-14T01:58:03.164Z,84.64
2022-10-14T02:00:41.357Z,84.80
2022-10-14T02:03:19.553Z,84.58
2022-10-14T02:06:08.237Z,84.53
2022-10-14T02:09:12.041Z,85.14
2022-10-14T02:12:22.305Z,84.86
2022-10-14T02:15:24.156Z,85.15
2022-10-14T02:18:06.969Z,85.54
2022-10-14T02:20:47.677Z,84.68
2022-10-14T02:23:32.834Z,85.03
2022-10-14T02:26:11.532Z,85.12
2022-10-14T02:28:51.877Z,85.64
2022-10-14T02:31:32.666Z,85.39
2022-10-14T02:34:14.864Z,86.09
2022-10-14T02:36:55.317Z,85.93
2022-10-14T02:39:48.195Z,85.66
2022-10-14T02:42:28.323Z,85.65
2022-10-14T02:45:09.382Z,85.93
2022-10-14T02:47:48.304Z,85.63
2022-10-14T02:50:26.616Z,85.59
2022-10-14T02:53:05.162Z,85.81
2022-10-14T02:55:43.104Z,85.44
2022-10-14T02:58:21.133Z,85.43
2022-10-14T03:01:00.904Z,85.65
2022-10-14T03:03:40.756Z,85.13
2022-10-14T03:06:18.943Z,85.47
2022-10-14T03:08:58.695Z,85.30
2022-10-14T03:11:38.497Z,86.16
2022-10-14T03:14:19.979Z,86.00
2022-10-14T03:16:59.765Z,86.11
2022-10-14T03:19:44.392Z,86.12
2022-10-14T03:22:24.463Z,86.02
2022-10-14T03:25:04.156Z,86.45
2022-10-14T03:27:52.370Z,86.53
2022-10-14T03:30:34.758Z,87.33
2022-10-14T03:33:22.129Z,87.10
2022-10-14T03:36:12.325Z,86.22
2022-10-14T03:38:58.173Z,86.30
2022-10-14T03:41:50.734Z,86.36
2022-10-14T03:44:33.734Z,86.55
2022-10-14T03:47:24.892Z,86.67
2022-10-14T03:50:05.112Z,86.00
2022-10-14T03:53:03.570Z,86.14
2022-10-14T03:55:46.598Z,86.45
2022-10-14T03:58:27.084Z,86.59
2022-10-14T04:01:12.578Z,86.41
2022-10-14T04:04:24.375Z,86.62
2022-10-14T04:07:02.562Z,87.01
2022-10-14T04:09:40.778Z,86.93
2022-10-14T04:12:20.789Z,87.13
2022-10-14T04:15:11.546Z,87.29
2022-10-14T04:18:08.956Z,87.11
2022-10-14T04:20:48.957Z,87.17
2022-10-14T04:23:30.177Z,86.63
2022-10-14T04:26:14.804Z,85.81
2022-10-14T04:28:56.221Z,85.75
2022-10-14T04:31:45.891Z,86.08
2022-10-14T04:34:23.804Z,86.38
2022-10-14T04:37:03.608Z,86.42
2022-10-14T04:40:05.402Z,86.11
2022-10-14T04:42:47.235Z,86.87
2022-10-14T04:45:33.362Z,86.69
2022-10-14T04:48:13.456Z,86.54
2022-10-14T04:50:54.830Z,86.85
2022-10-14T04:53:53.870Z,86.94
2022-10-14T04:56:55.874Z,85.54
2022-10-14T04:59:34.577Z,86.10
2022-10-14T05:02:29.838Z,86.14
2022-10-14T05:05:11.272Z,86.92
2022-10-14T05:07:52.635Z,86.76
2022-10-14T05:10:49.087Z,86.83
2022-10-14T05:13:39.534Z,87.04
2022-10-14T05:16:20.841Z,87.12
2022-10-14T05:18:59.053Z,86.88
2022-10-14T05:21:39.178Z,87.49
2022-10-14T05:24:25.070Z,87.41
2022-10-14T05:27:03.327Z,87.01
2022-10-14T05:29:43.038Z,87.01
2022-10-14T05:32:21.660Z,87.06
2022-10-14T05:35:03.087Z,87.25
2022-10-14T05:37:47.219Z,86.46
2022-10-14T05:40:29.284Z,86.56
2022-10-14T05:43:08.440Z,87.11
2022-10-14T05:45:49.822Z,86.31
2022-10-14T05:48:28.210Z,85.47
2022-10-14T05:51:08.159Z,85.67
2022-10-14T05:53:48.244Z,86.14
2022-10-14T05:56:30.780Z,86.32
2022-10-14T05:59:10.453Z,86.18
2022-10-14T06:01:48.643Z,85.45
2022-10-14T06:04:27.179Z,85.59
2022-10-14T06:07:07.198Z,85.99
2022-10-14T06:09:48.256Z,85.60
2022-10-14T06:12:26.790Z,84.60
2022-10-14T06:15:17.960Z,84.46
2022-10-14T06:17:56.258Z,84.37
2022-10-14T06:20:36.270Z,83.39
2022-10-14T06:23:14.146Z,82.92
2022-10-14T06:25:52.730Z,83.03
2022-10-14T06:28:31.019Z,83.33
2022-10-14T06:31:10.259Z,82.71
2022-10-14T06:33:48.463Z,82.05
2022-10-14T06:36:27.008Z,81.17
2022-10-14T06:39:05.405Z,80.56
2022-10-14T06:41:43.171Z,80.23
2022-10-14T06:44:31.652Z,78.48
2022-10-14T06:47:12.717Z,77.24
2022-10-14T06:49:51.302Z,77.49
2022-10-14T06:52:30.374Z,77.06
2022-10-14T06:55:08.586Z,76.74
2022-10-14T06:57:46.752Z,76.49
2022-10-14T07:00:23.630Z,76.45
2022-10-14T07:03:01.573Z,76.69
2022-10-14T07:05:41.847Z,75.64
2022-10-14T07:08:23.369Z,75.12
2022-10-14T07:11:03.176Z,76.08
2022-10-14T07:13:42.619Z,75.76
2022-10-14T07:16:24.064Z,74.74
2022-10-14T07:19:01.882Z,72.81
2022-10-14T07:21:40.170Z,72.14
2022-10-14T07:24:20.928Z,72.15
2022-10-14T07:27:00.026Z,71.37
2022-10-14T07:29:38.252Z,71.44
2022-10-14T07:32:16.198Z,70.70
2022-10-14T07:34:54.465Z,70.86
2022-10-14T07:37:32.621Z,69.88
2022-10-14T07:40:11.860Z,68.87
2022-10-14T07:42:50.650Z,68.19
2022-10-14T07:45:35.149Z,67.10
2022-10-14T07:48:13.424Z,66.63
2022-10-14T07:50:51.662Z,65.82
2022-10-14T07:53:29.878Z,65.08
2022-10-14T07:56:09.977Z,63.45
2022-10-14T07:58:48.949Z,63.14
2022-10-14T08:01:27.731Z,61.32
2022-10-14T08:04:05.793Z,60.10
2022-10-14T08:06:46.858Z,60.79
2022-10-14T08:12:04.199Z,58.89
2022-10-14T08:14:43.484Z,59.65
2022-10-14T08:17:21.801Z,57.88
2022-10-14T08:19:59.973Z,59.03
2022-10-14T08:22:38.071Z,58.20
2022-10-14T08:25:14.819Z,57.49
2022-10-14T08:27:57.792Z,57.37
2022-10-14T08:30:37.935Z,58.04
2022-10-14T08:33:17.288Z,57.42
2022-10-14T08:35:55.462Z,56.74
2022-10-14T08:38:33.652Z,56.70
2022-10-14T08:41:14.969Z,56.73
2022-10-14T08:44:08.311Z,56.32
2022-10-14T08:47:10.945Z,56.64
2022-10-14T08:50:17.841Z,55.29
2022-10-14T08:53:03.467Z,54.92
2022-10-14T08:55:45.845Z,56.11
2022-10-14T08:58:39.887Z,55.69
2022-10-14T09:01:39.821Z,54.98
2022-10-14T09:04:20.031Z,54.37
2022-10-14T09:07:00.256Z,54.83
2022-10-14T09:09:43.676Z,55.16
2022-10-14T09:12:26.453Z,54.33
2022-10-14T09:15:28.448Z,53.77
2022-10-14T09:18:32.484Z,53.54
2022-10-14T09:21:52.090Z,52.78
2022-10-14T09:24:38.286Z,52.69
2022-10-14T09:27:23.339Z,52.85
2022-10-14T09:30:10.419Z,53.17
2022-10-14T09:32:52.686Z,53.88
2022-10-14T09:35:35.449Z,52.46
2022-10-14T09:38:14.398Z,53.22
2022-10-14T09:40:58.625Z,52.03
2022-10-14T09:46:18.088Z,51.25
2022-10-14T09:48:56.768Z,51.69
2022-10-14T09:51:35.714Z,51.08
2022-10-14T09:54:26.691Z,51.06
2022-10-14T09:57:08.990Z,51.02
2022-10-14T09:59:55.561Z,51.77
2022-10-14T10:02:42.327Z,50.93
2022-10-14T10:05:32.405Z,51.76
2022-10-14T10:08:14.303Z,51.98
2022-10-14T10:11:14.016Z,52.29
2022-10-14T10:13:53.488Z,51.37
2022-10-14T10:16:32.994Z,51.27
2022-10-14T10:19:44.974Z,51.46
2022-10-14T10:22:28.316Z,49.94
2022-10-14T10:25:09.098Z,49.39
2022-10-14T10:27:49.570Z,49.81
2022-10-14T10:30:35.779Z,50.06
2022-10-14T10:33:28.469Z,49.37
2022-10-14T10:36:29.162Z,50.48
2022-10-14T10:39:31.807Z,49.71
2022-10-14T10:42:22.598Z,49.86
2022-10-14T10:45:16.253Z,48.62
2022-10-14T10:48:08.281Z,47.59
2022-10-14T10:51:08.027Z,47.29
2022-10-14T10:54:16.046Z,47.43
2022-10-14T10:56:59.346Z,47.09
2022-10-14T10:59:55.585Z,48.25
2022-10-14T11:03:10.163Z,47.96
2022-10-14T11:06:53.748Z,48.78
2022-10-14T11:10:07.236Z,49.33
2022-10-14T11:13:12.144Z,49.35
2022-10-14T11:16:07.744Z,48.79
2022-10-14T11:19:14.618Z,48.78
2022-10-14T11:22:11.953Z,49.36
2022-10-14T11:25:06.970Z,49.68
2022-10-14T11:28:13.602Z,51.07
2022-10-14T11:31:14.316Z,49.32
2022-10-14T11:34:19.418Z,48.04
2022-10-14T11:37:47.455Z,46.04
2022-10-14T11:40:39.783Z,46.17
2022-10-14T11:43:45.468Z,47.26
2022-10-14T11:46:29.273Z,47.87
2022-10-14T11:49:16.152Z,48.18
2022-10-14T11:52:03.203Z,49.95
2022-10-14T11:54:54.313Z,49.21
2022-10-14T11:58:16.125Z,51.48
2022-10-14T12:01:09.330Z,52.30
2022-10-14T12:04:05.285Z,52.30
2022-10-14T12:06:52.016Z,52.32
2022-10-14T12:09:39.658Z,53.18
2022-10-14T12:12:44.719Z,53.01
2022-10-14T12:15:27.389Z,52.49
2022-10-14T12:18:10.787Z,53.52
2022-10-14T12:21:02.417Z,53.31
2022-10-14T12:23:49.186Z,53.70
2022-10-14T12:26:50.229Z,55.12
2022-10-14T12:29:36.386Z,54.77
2022-10-14T12:32:32.248Z,54.48
2022-10-14T12:35:50.921Z,54.97
2022-10-14T12:38:30.851Z,54.34
2022-10-14T12:41:37.843Z,54.07
2022-10-14T12:44:19.785Z,54.33
2022-10-14T12:46:58.632Z,53.35
2022-10-14T12:49:37.869Z,53.76
2022-10-14T12:52:28.431Z,53.83
2022-10-14T12:55:17.927Z,53.58
2022-10-14T12:58:02.529Z,54.24
2022-10-14T13:00:43.147Z,53.57
2022-10-14T13:03:27.353Z,53.32
2022-10-14T13:06:32.791Z,53.43
2022-10-14T13:09:15.551Z,53.79
2022-10-14T13:12:11.437Z,53.40
2022-10-14T13:15:02.325Z,53.82
2022-10-14T13:17:46.221Z,53.52
2022-10-14T13:20:34.634Z,53.07
2022-10-14T13:23:43.979Z,52.33
2022-10-14T13:26:23.267Z,52.59
2022-10-14T13:29:32.644Z,52.05
2022-10-14T13:32:49.540Z,52.45
2022-10-14T13:35:49.047Z,51.59
2022-10-14T13:38:28.408Z,51.48
2022-10-14T13:41:17.287Z,51.58
2022-10-14T13:44:00.088Z,51.55
2022-10-14T13:46:45.831Z,50.96
2022-10-14T13:49:36.100Z,51.29
2022-10-14T13:52:25.827Z,51.27
2022-10-14T13:55:21.000Z,50.88
2022-10-14T13:58:18.387Z,51.31
2022-10-14T14:01:01.032Z,51.24
2022-10-14T14:03:46.999Z,52.75
2022-10-14T14:06:35.868Z,51.50
2022-10-14T14:09:26.718Z,50.60
2022-10-14T14:12:05.700Z,51.46
2022-10-14T14:14:44.250Z,50.67
2022-10-14T14:17:25.137Z,50.74
2022-10-14T14:20:11.389Z,51.24
2022-10-14T14:22:50.331Z,50.62
2022-10-14T14:25:36.732Z,50.20
2022-10-14T14:28:31.552Z,51.25
2022-10-14T14:31:30.330Z,51.14
2022-10-14T14:34:19.749Z,51.52
2022-10-14T14:37:06.033Z,52.00
2022-10-14T14:40:00.828Z,53.50
2022-10-14T14:42:40.835Z,52.47
2022-10-14T14:45:26.147Z,51.39
2022-10-14T14:48:07.671Z,51.70
2022-10-14T14:50:48.934Z,52.39
2022-10-14T14:53:30.060Z,51.91
2022-10-14T14:56:18.627Z,52.67
2022-10-14T14:59:06.716Z,51.98
2022-10-14T15:01:44.990Z,52.57
2022-10-14T15:04:26.548Z,52.60
2022-10-14T15:07:21.681Z,52.50
2022-10-14T15:10:25.442Z,52.88
2022-10-14T15:13:05.686Z,52.76
2022-10-14T15:15:53.766Z,53.25
2022-10-14T15:18:32.199Z,53.01
2022-10-14T15:21:16.283Z,53.28
2022-10-14T15:23:56.175Z,53.43
2022-10-14T15:26:36.086Z,54.06
2022-10-14T15:32:01.742Z,53.55
2022-10-14T15:34:40.656Z,53.46
2022-10-14T15:37:19.964Z,53.58
2022-10-14T15:40:04.718Z,53.41
2022-10-14T15:42:43.713Z,54.02
2022-10-14T15:45:25.072Z,53.55
2022-10-14T15:48:07.980Z,54.07
2022-10-14T15:50:48.209Z,53.89
2022-10-14T15:53:27.080Z,54.22
2022-10-14T15:56:06.967Z,54.79
2022-10-14T15:58:46.325Z,54.51
2022-10-14T16:01:24.645Z,54.83
2022-10-14T16:04:03.948Z,54.26
2022-10-14T16:06:56.580Z,54.89
2022-10-14T16:09:34.330Z,55.72
2022-10-14T16:12:16.235Z,55.43
2022-10-14T16:14:55.423Z,55.53
2022-10-14T16:17:33.537Z,55.97
2022-10-14T16:20:12.063Z,55.95
2022-10-14T16:22:50.332Z,56.04
2022-10-14T16:25:38.998Z,58.04
2022-10-14T16:28:18.943Z,57.15
2022-10-14T16:30:59.366Z,56.92
2022-10-14T16:33:40.529Z,57.60
2022-10-14T16:36:23.460Z,57.52
2022-10-14T16:39:01.887Z,57.64
2022-10-14T16:41:39.881Z,58.50
2022-10-14T16:44:27.692Z,58.21
2022-10-14T16:47:19.826Z,58.76
2022-10-14T16:49:59.916Z,59.28
2022-10-14T16:53:00.881Z,58.61
2022-10-14T16:55:45.006Z,58.77
2022-10-14T16:58:23.659Z,59.47
2022-10-14T17:01:04.111Z,59.51
2022-10-14T17:03:44.602Z,60.02
2022-10-14T17:06:24.375Z,60.73
2022-10-14T17:09:04.957Z,60.40
2022-10-14T17:11:44.804Z,60.68
2022-10-14T17:14:24.387Z,60.93
2022-10-14T17:17:04.179Z,61.07
2022-10-14T17:19:44.598Z,61.46
2022-10-14T17:22:24.117Z,61.91
2022-10-14T17:25:03.014Z,61.90
2022-10-14T17:27:41.441Z,62.01
2022-10-14T17:30:31.883Z,61.88
2022-10-14T17:33:10.959Z,61.76
2022-10-14T17:35:57.069Z,62.53
2022-10-14T17:38:36.450Z,62.69
2022-10-14T17:41:18.415Z,62.92
2022-10-14T17:43:58.543Z,62.71
2022-10-14T17:46:37.247Z,62.70
2022-10-14T17:49:16.208Z,62.99
2022-10-14T17:51:54.388Z,62.78
2022-10-14T17:54:32.595Z,62.93
2022-10-14T17:57:10.791Z,62.98
2022-10-14T17:59:50.998Z,62.84
2022-10-14T18:02:30.541Z,62.82
2022-10-14T18:05:08.974Z,62.82
2022-10-14T18:07:48.421Z,62.25
2022-10-14T18:10:26.633Z,62.62
2022-10-14T18:13:05.350Z,62.86
2022-10-14T18:15:46.670Z,63.15
2022-10-14T18:18:39.591Z,63.07
2022-10-14T18:21:17.871Z,63.16
2022-10-14T18:23:57.507Z,62.63
2022-10-14T18:26:35.562Z,63.44
2022-10-14T18:29:13.762Z,63.01
2022-10-14T18:34:38.699Z,63.28
2022-10-14T18:37:18.013Z,63.92
2022-10-14T18:39:56.315Z,64.18
2022-10-14T18:42:34.553Z,64.20
2022-10-14T18:45:12.761Z,64.84
2022-10-14T18:47:51.284Z,64.65
2022-10-14T18:50:30.884Z,64.76
2022-10-14T18:53:08.908Z,64.60
2022-10-14T18:55:47.075Z,64.60
2022-10-14T18:58:26.156Z,65.21
2022-10-14T19:01:06.650Z,65.26
2022-10-14T19:03:44.920Z,65.53
2022-10-14T19:06:23.906Z,65.83
2022-10-14T19:09:03.972Z,65.41
2022-10-14T19:11:42.746Z,65.85
2022-10-14T19:14:22.597Z,66.01
2022-10-14T19:17:00.624Z,66.30
2022-10-14T19:19:39.642Z,66.16
2022-10-14T19:22:18.693Z,66.46
2022-10-14T19:24:57.076Z,66.60
2022-10-14T19:27:35.019Z,66.64
2022-10-14T19:30:13.293Z,67.03
2022-10-14T19:32:51.491Z,66.98
2022-10-14T19:35:29.638Z,67.24
2022-10-14T19:38:08.164Z,67.85
2022-10-14T19:40:46.199Z,67.93
2022-10-14T19:43:24.257Z,68.27
2022-10-14T19:46:10.999Z,68.94
2022-10-14T19:48:50.983Z,69.91
2022-10-14T19:51:30.960Z,70.04
2022-10-14T19:54:13.110Z,69.44
2022-10-14T19:56:55.551Z,69.19
2022-10-14T19:59:42.899Z,69.46
2022-10-14T20:02:31.677Z,70.59
2022-10-14T20:05:20.253Z,71.58
2022-10-14T20:08:05.315Z,72.39
2022-10-14T20:10:51.339Z,73.69
2022-10-14T20:13:39.164Z,75.05
2022-10-14T20:16:24.458Z,75.65
2022-10-14T20:19:09.779Z,75.98
2022-10-14T20:21:55.312Z,76.92
2022-10-14T20:24:41.721Z,77.17
2022-10-14T20:27:27.492Z,77.65
2022-10-14T20:30:12.868Z,77.07
2022-10-14T20:32:55.885Z,77.63
2022-10-14T20:35:35.521Z,77.72
2022-10-14T20:38:15.750Z,78.31
2022-10-14T20:40:56.026Z,78.28
2022-10-14T20:43:34.510Z,78.67
2022-10-14T20:46:25.569Z,78.92
2022-10-14T20:49:04.385Z,79.23
2022-10-14T20:51:43.472Z,79.62
2022-10-14T20:54:22.225Z,79.79
2022-10-14T20:57:03.388Z,80.42
2022-10-14T20:59:44.464Z,80.38
2022-10-14T21:02:25.909Z,80.98
2022-10-14T21:05:06.080Z,81.49
2022-10-14T21:07:45.855Z,81.11
2022-10-14T21:10:27.376Z,82.05
2022-10-14T21:13:08.345Z,82.14
2022-10-14T21:15:46.512Z,82.65
2022-10-14T21:18:24.790Z,82.47
2022-10-14T21:21:02.681Z,83.34
2022-10-14T21:23:40.950Z,83.01
2022-10-14T21:26:19.093Z,83.17
2022-10-14T21:28:57.587Z,82.94
2022-10-14T21:31:35.867Z,82.42
2022-10-14T21:34:14.353Z,83.12
2022-10-14T21:36:53.489Z,83.56
2022-10-14T21:39:30.430Z,83.56
2022-10-14T21:42:07.077Z,83.82
2022-10-14T21:44:43.664Z,84.62
2022-10-14T21:47:20.452Z,84.03
2022-10-14T21:49:58.465Z,84.39
2022-10-14T21:52:35.321Z,84.91
2022-10-14T21:55:13.328Z,84.85
2022-10-14T21:57:51.529Z,84.33
2022-10-14T22:00:28.184Z,84.14
2022-10-14T22:03:06.331Z,83.79
2022-10-14T22:05:44.733Z,83.24
2022-10-14T22:08:24.034Z,83.70
2022-10-14T22:11:01.238Z,84.02
2022-10-14T22:13:39.108Z,84.01
2022-10-14T22:16:19.487Z,84.50
2022-10-14T22:18:59.769Z,83.98
2022-10-14T22:21:38.378Z,84.51
2022-10-14T22:24:16.121Z,84.59
2022-10-14T22:26:53.469Z,84.04
2022-10-14T22:29:33.497Z,83.48
2022-10-14T22:32:11.295Z,83.98
2022-10-14T22:34:48.050Z,83.43
2022-10-14T22:37:26.158Z,83.40
2022-10-14T22:40:04.819Z,83.14
2022-10-14T22:42:49.024Z,82.81
2022-10-14T22:45:28.793Z,82.69
2022-10-14T22:48:07.951Z,83.61
2022-10-14T22:50:45.114Z,83.58
2022-10-14T22:53:21.867Z,84.30
2022-10-14T22:56:00.373Z,83.83
2022-10-14T22:58:38.192Z,84.45
2022-10-14T23:01:17.272Z,84.94
2022-10-14T23:03:58.288Z,84.68
2022-10-14T23:06:36.417Z,85.25
2022-10-14T23:09:14.372Z,85.28
2022-10-14T23:11:52.461Z,85.87
2022-10-14T23:14:31.072Z,85.89
2022-10-14T23:17:09.712Z,86.14
2022-10-14T23:19:46.993Z,84.94
2022-10-14T23:22:24.508Z,83.57
2022-10-14T23:25:01.732Z,82.47
2022-10-14T23:27:39.026Z,81.08
2022-10-14T23:30:16.811Z,79.91
2022-10-14T23:32:54.795Z,79.84
2022-10-14T23:35:35.452Z,80.41
2022-10-14T23:38:13.558Z,79.47
2022-10-14T23:40:50.954Z,80.19
2022-10-14T23:43:28.055Z,79.38
2022-10-14T23:46:06.914Z,80.71
2022-10-14T23:48:51.376Z,79.49
2022-10-14T23:51:38.169Z,80.33
2022-10-14T23:54:15.314Z,79.43
2022-10-14T23:56:53.148Z,79.14
2022-10-14T23:59:33.205Z,78.39
